Changbai, China
Current Conditions -  °F | °C
As of 9:00 AM on Sunday 26 Oct 2014 (Local Time) from KQEI Reporting Station
Haze Haze  
Wind Chill: 50°   Ceiling: Unl
Heat Index: 50°   Visibility: 3mi
Dew Point: 46°   Wind: 1mph
Humidity: 87%   Direction: 140°SE
Pressure: 30.14"   Gusts: NA
Location:  41.43°N, 128.14°E
Report Text: KQEI 260100Z AUTO 14001KT 4800 HZ FEW003 10/08 A3014 RMK A02 TSNO
Loading
Personal Weather Stations






























Interactive Weather Map
Tropical Storm Tracking
New forecast layout! Learn more

10-Day Weather Forecast

Advertisements
Track Severe Weather on mobile